sensor_id;sensor_type;location;lat;lon;timestamp;temperature;humidity
16995;DHT22;8614;48.522;9.206;2022-12-10T03:01:36;1.90;99.90
16995;DHT22;8614;48.522;9.206;2022-12-10T03:04:11;1.90;99.90
16995;DHT22;8614;48.522;9.206;2022-12-10T03:06:44;1.80;99.90
16995;DHT22;8614;48.522;9.206;2022-12-10T03:09:16;1.80;99.90
16995;DHT22;8614;48.522;9.206;2022-12-10T03:11:47;1.80;99.90
16995;DHT22;8614;48.522;9.206;2022-12-10T03:14:21;1.90;99.90
16995;DHT22;8614;48.522;9.206;2022-12-10T03:16:54;1.90;99.90
16995;DHT22;8614;48.522;9.206;2022-12-10T03:19:26;1.80;99.90
16995;DHT22;8614;48.522;9.206;2022-12-10T03:21:55;1.80;99.90
16995;DHT22;8614;48.522;9.206;2022-12-10T03:24:27;1.80;99.90
16995;DHT22;8614;48.522;9.206;2022-12-10T03:26:55;1.70;99.90
16995;DHT22;8614;48.522;9.206;2022-12-10T03:29:27;1.80;99.90
16995;DHT22;8614;48.522;9.206;2022-12-10T03:31:57;1.70;99.90
16995;DHT22;8614;48.522;9.206;2022-12-10T03:34:25;1.70;99.90
16995;DHT22;8614;48.522;9.206;2022-12-10T03:36:52;1.70;99.90
16995;DHT22;8614;48.522;9.206;2022-12-10T03:39:19;1.80;99.90
16995;DHT22;8614;48.522;9.206;2022-12-10T03:41:46;1.80;99.90
16995;DHT22;8614;48.522;9.206;2022-12-10T03:44:13;1.80;99.90
16995;DHT22;8614;48.522;9.206;2022-12-10T03:46:52;1.80;99.90
16995;DHT22;8614;48.522;9.206;2022-12-10T03:49:21;1.80;99.90
16995;DHT22;8614;48.522;9.206;2022-12-10T03:51:47;1.80;99.90
16995;DHT22;8614;48.522;9.206;2022-12-10T03:54:14;1.80;99.90
16995;DHT22;8614;48.522;9.206;2022-12-10T03:56:41;1.80;99.90
16995;DHT22;8614;48.522;9.206;2022-12-10T03:59:08;1.80;99.90
16995;DHT22;8614;48.522;9.206;2022-12-10T04:01:35;1.80;99.90
16995;DHT22;8614;48.522;9.206;2022-12-10T04:04:03;1.80;99.90
16995;DHT22;8614;48.522;9.206;2022-12-10T04:06:37;1.80;99.90
16995;DHT22;8614;48.522;9.206;2022-12-10T04:09:04;1.90;99.90
16995;DHT22;8614;48.522;9.206;2022-12-10T04:11:31;1.90;99.90
16995;DHT22;8614;48.522;9.206;2022-12-10T04:13:58;2.00;99.90
16995;DHT22;8614;48.522;9.206;2022-12-10T04:16:42;1.90;99.90
16995;DHT22;8614;48.522;9.206;2022-12-10T04:19:11;2.00;99.90
16995;DHT22;8614;48.522;9.206;2022-12-10T04:21:42;1.90;99.90
16995;DHT22;8614;48.522;9.206;2022-12-10T04:24:30;1.80;99.90
16995;DHT22;8614;48.522;9.206;2022-12-10T04:27:18;1.80;99.90
16995;DHT22;8614;48.522;9.206;2022-12-10T04:29:46;1.80;99.90
16995;DHT22;8614;48.522;9.206;2022-12-10T04:32:13;1.80;99.90
16995;DHT22;8614;48.522;9.206;2022-12-10T04:34:40;1.80;99.90
16995;DHT22;8614;48.522;9.206;2022-12-10T04:37:08;1.80;99.90
16995;DHT22;8614;48.522;9.206;2022-12-10T04:39:37;1.90;99.90
16995;DHT22;8614;48.522;9.206;2022-12-10T04:42:04;1.90;99.90
16995;DHT22;8614;48.522;9.206;2022-12-10T04:44:31;1.90;99.90
16995;DHT22;8614;48.522;9.206;2022-12-10T04:46:59;1.90;99.90
16995;DHT22;8614;48.522;9.206;2022-12-10T04:49:26;1.90;99.90
16995;DHT22;8614;48.522;9.206;2022-12-10T04:51:53;1.90;99.90
16995;DHT22;8614;48.522;9.206;2022-12-10T04:54:23;1.90;99.90
16995;DHT22;8614;48.522;9.206;2022-12-10T04:56:50;1.90;99.90
16995;DHT22;8614;48.522;9.206;2022-12-10T04:59:18;1.90;99.90
16995;DHT22;8614;48.522;9.206;2022-12-10T05:01:45;1.80;99.90
16995;DHT22;8614;48.522;9.206;2022-12-10T05:04:13;1.80;99.90
16995;DHT22;8614;48.522;9.206;2022-12-10T05:06:41;1.80;99.90
16995;DHT22;8614;48.522;9.206;2022-12-10T05:09:09;1.80;99.90
16995;DHT22;8614;48.522;9.206;2022-12-10T05:11:37;1.80;99.90
16995;DHT22;8614;48.522;9.206;2022-12-10T05:14:05;1.80;99.90
16995;DHT22;8614;48.522;9.206;2022-12-10T05:16:33;1.70;99.90
16995;DHT22;8614;48.522;9.206;2022-12-10T05:19:00;1.70;99.90
16995;DHT22;8614;48.522;9.206;2022-12-10T05:21:28;1.70;99.90
16995;DHT22;8614;48.522;9.206;2022-12-10T05:24:18;1.60;99.90
16995;DHT22;8614;48.522;9.206;2022-12-10T05:26:45;1.70;99.90
16995;DHT22;8614;48.522;9.206;2022-12-10T05:29:16;1.70;99.90
16995;DHT22;8614;48.522;9.206;2022-12-10T05:31:43;1.70;99.90
16995;DHT22;8614;48.522;9.206;2022-12-10T05:34:10;1.60;99.90
16995;DHT22;8614;48.522;9.206;2022-12-10T05:36:37;1.70;99.90
16995;DHT22;8614;48.522;9.206;2022-12-10T05:39:05;1.70;99.90
16995;DHT22;8614;48.522;9.206;2022-12-10T05:41:36;1.70;99.90
16995;DHT22;8614;48.522;9.206;2022-12-10T05:44:05;1.70;99.90
16995;DHT22;8614;48.522;9.206;2022-12-10T05:46:33;1.70;99.90
16995;DHT22;8614;48.522;9.206;2022-12-10T05:49:01;1.70;99.90
16995;DHT22;8614;48.522;9.206;2022-12-10T05:51:31;1.70;99.90
16995;DHT22;8614;48.522;9.206;2022-12-10T05:53:59;1.70;99.90
16995;DHT22;8614;48.522;9.206;2022-12-10T05:56:27;1.70;99.90
16995;DHT22;8614;48.522;9.206;2022-12-10T05:58:56;1.70;99.90
16995;DHT22;8614;48.522;9.206;2022-12-10T06:01:27;1.70;99.90
16995;DHT22;8614;48.522;9.206;2022-12-10T06:03:56;1.80;99.90
16995;DHT22;8614;48.522;9.206;2022-12-10T06:06:25;1.70;99.90
16995;DHT22;8614;48.522;9.206;2022-12-10T06:08:53;1.80;99.90
16995;DHT22;8614;48.522;9.206;2022-12-10T06:11:20;1.80;99.90
16995;DHT22;8614;48.522;9.206;2022-12-10T06:13:48;1.80;99.90
16995;DHT22;8614;48.522;9.206;2022-12-10T06:16:15;1.80;99.90
16995;DHT22;8614;48.522;9.206;2022-12-10T06:18:43;1.80;99.90
16995;DHT22;8614;48.522;9.206;2022-12-10T06:21:12;1.80;99.90
16995;DHT22;8614;48.522;9.206;2022-12-10T06:23:40;1.80;99.90
16995;DHT22;8614;48.522;9.206;2022-12-10T06:26:08;1.70;99.90
16995;DHT22;8614;48.522;9.206;2022-12-10T06:28:36;1.80;99.90
16995;DHT22;8614;48.522;9.206;2022-12-10T06:31:03;1.90;99.90
16995;DHT22;8614;48.522;9.206;2022-12-10T06:33:30;1.90;99.90
16995;DHT22;8614;48.522;9.206;2022-12-10T06:35:58;1.90;99.90
16995;DHT22;8614;48.522;9.206;2022-12-10T06:38:25;1.90;99.90
16995;DHT22;8614;48.522;9.206;2022-12-10T06:40:52;1.90;99.90
16995;DHT22;8614;48.522;9.206;2022-12-10T06:43:19;1.90;99.90
16995;DHT22;8614;48.522;9.206;2022-12-10T06:45:46;1.90;99.90
16995;DHT22;8614;48.522;9.206;2022-12-10T06:48:13;1.90;99.90
16995;DHT22;8614;48.522;9.206;2022-12-10T06:50:39;1.90;99.90
16995;DHT22;8614;48.522;9.206;2022-12-10T06:53:08;1.80;99.90
16995;DHT22;8614;48.522;9.206;2022-12-10T06:55:36;1.70;99.90
16995;DHT22;8614;48.522;9.206;2022-12-10T06:58:03;1.70;99.90
16995;DHT22;8614;48.522;9.206;2022-12-10T07:00:30;1.70;99.90
16995;DHT22;8614;48.522;9.206;2022-12-10T07:02:57;1.60;99.90
16995;DHT22;8614;48.522;9.206;2022-12-10T07:05:24;1.70;99.90
16995;DHT22;8614;48.522;9.206;2022-12-10T07:07:51;1.70;99.90
16995;DHT22;8614;48.522;9.206;2022-12-10T07:10:19;1.70;99.90
16995;DHT22;8614;48.522;9.206;2022-12-10T07:12:46;1.70;99.90
16995;DHT22;8614;48.522;9.206;2022-12-10T07:15:13;1.70;99.90
16995;DHT22;8614;48.522;9.206;2022-12-10T07:17:40;1.70;99.90
16995;DHT22;8614;48.522;9.206;2022-12-10T07:20:08;1.70;99.90
16995;DHT22;8614;48.522;9.206;2022-12-10T07:22:35;1.70;99.90
16995;DHT22;8614;48.522;9.206;2022-12-10T07:25:02;1.70;99.90
16995;DHT22;8614;48.522;9.206;2022-12-10T07:27:30;1.60;99.90
16995;DHT22;8614;48.522;9.206;2022-12-10T07:29:57;1.60;99.90
16995;DHT22;8614;48.522;9.206;2022-12-10T07:32:26;1.60;99.90
16995;DHT22;8614;48.522;9.206;2022-12-10T07:34:52;1.70;99.90
16995;DHT22;8614;48.522;9.206;2022-12-10T07:37:20;1.70;99.90
16995;DHT22;8614;48.522;9.206;2022-12-10T07:39:46;1.70;99.90
16995;DHT22;8614;48.522;9.206;2022-12-10T07:42:13;1.70;99.90
16995;DHT22;8614;48.522;9.206;2022-12-10T07:44:41;1.70;99.90
16995;DHT22;8614;48.522;9.206;2022-12-10T07:47:08;1.70;99.90
16995;DHT22;8614;48.522;9.206;2022-12-10T07:49:35;1.80;99.90
16995;DHT22;8614;48.522;9.206;2022-12-10T07:52:02;1.90;99.90
16995;DHT22;8614;48.522;9.206;2022-12-10T07:54:29;1.80;99.90
16995;DHT22;8614;48.522;9.206;2022-12-10T07:56:56;1.80;99.90
16995;DHT22;8614;48.522;9.206;2022-12-10T07:59:23;1.90;99.90
16995;DHT22;8614;48.522;9.206;2022-12-10T08:01:54;1.90;99.90
16995;DHT22;8614;48.522;9.206;2022-12-10T08:04:21;1.80;99.90
16995;DHT22;8614;48.522;9.206;2022-12-10T08:06:47;1.90;99.90
16995;DHT22;8614;48.522;9.206;2022-12-10T08:09:14;1.80;99.90
16995;DHT22;8614;48.522;9.206;2022-12-10T08:11:41;1.80;99.90
16995;DHT22;8614;48.522;9.206;2022-12-10T08:14:08;1.90;99.90
16995;DHT22;8614;48.522;9.206;2022-12-10T08:16:35;1.90;99.90
16995;DHT22;8614;48.522;9.206;2022-12-10T08:19:03;1.90;99.90
16995;DHT22;8614;48.522;9.206;2022-12-10T08:21:32;1.90;99.90
16995;DHT22;8614;48.522;9.206;2022-12-10T08:23:59;1.90;99.90
16995;DHT22;8614;48.522;9.206;2022-12-10T08:26:32;1.90;99.90
16995;DHT22;8614;48.522;9.206;2022-12-10T08:28:59;2.00;99.90
16995;DHT22;8614;48.522;9.206;2022-12-10T08:31:27;2.00;99.90
16995;DHT22;8614;48.522;9.206;2022-12-10T08:33:54;2.10;99.90
16995;DHT22;8614;48.522;9.206;2022-12-10T08:36:22;2.10;99.90
16995;DHT22;8614;48.522;9.206;2022-12-10T08:38:49;2.20;99.90
16995;DHT22;8614;48.522;9.206;2022-12-10T08:41:18;2.20;99.90
16995;DHT22;8614;48.522;9.206;2022-12-10T08:43:45;2.20;99.90
16995;DHT22;8614;48.522;9.206;2022-12-10T08:46:13;2.30;99.90
16995;DHT22;8614;48.522;9.206;2022-12-10T08:48:40;2.30;99.90
16995;DHT22;8614;48.522;9.206;2022-12-10T08:51:08;2.30;99.90
16995;DHT22;8614;48.522;9.206;2022-12-10T08:53:37;2.30;99.90
16995;DHT22;8614;48.522;9.206;2022-12-10T08:56:04;2.30;99.90
16995;DHT22;8614;48.522;9.206;2022-12-10T08:58:31;2.30;99.90
16995;DHT22;8614;48.522;9.206;2022-12-10T09:00:58;2.40;99.90
16995;DHT22;8614;48.522;9.206;2022-12-10T09:03:27;2.40;99.90
16995;DHT22;8614;48.522;9.206;2022-12-10T09:05:53;2.50;99.90
16995;DHT22;8614;48.522;9.206;2022-12-10T09:08:20;2.50;99.90
16995;DHT22;8614;48.522;9.206;2022-12-10T09:10:48;2.60;99.90
16995;DHT22;8614;48.522;9.206;2022-12-10T09:13:15;2.70;99.90
16995;DHT22;8614;48.522;9.206;2022-12-10T09:15:49;2.80;99.90
16995;DHT22;8614;48.522;9.206;2022-12-10T09:18:16;2.80;99.90
16995;DHT22;8614;48.522;9.206;2022-12-10T09:20:43;2.90;99.90
16995;DHT22;8614;48.522;9.206;2022-12-10T09:23:10;2.90;99.90
16995;DHT22;8614;48.522;9.206;2022-12-10T09:25:37;2.90;99.90
16995;DHT22;8614;48.522;9.206;2022-12-10T09:28:06;2.80;99.90
16995;DHT22;8614;48.522;9.206;2022-12-10T09:30:32;2.80;99.90
16995;DHT22;8614;48.522;9.206;2022-12-10T09:33:00;2.80;99.90
16995;DHT22;8614;48.522;9.206;2022-12-10T09:35:27;2.70;99.90
16995;DHT22;8614;48.522;9.206;2022-12-10T09:37:54;2.70;99.90
16995;DHT22;8614;48.522;9.206;2022-12-10T09:40:26;2.70;99.90
16995;DHT22;8614;48.522;9.206;2022-12-10T09:42:59;2.70;99.90
16995;DHT22;8614;48.522;9.206;2022-12-10T09:45:34;2.70;99.90
16995;DHT22;8614;48.522;9.206;2022-12-10T09:48:12;2.70;99.90
16995;DHT22;8614;48.522;9.206;2022-12-10T09:50:47;2.80;99.90
16995;DHT22;8614;48.522;9.206;2022-12-10T09:53:17;2.80;99.90
16995;DHT22;8614;48.522;9.206;2022-12-10T09:55:47;2.70;99.90
16995;DHT22;8614;48.522;9.206;2022-12-10T09:58:18;2.80;99.90
16995;DHT22;8614;48.522;9.206;2022-12-10T10:00:48;2.90;99.90
16995;DHT22;8614;48.522;9.206;2022-12-10T10:03:17;2.70;99.90
16995;DHT22;8614;48.522;9.206;2022-12-10T10:05:46;2.70;99.90
16995;DHT22;8614;48.522;9.206;2022-12-10T10:08:22;2.70;99.90
16995;DHT22;8614;48.522;9.206;2022-12-10T10:10:49;2.80;99.90
16995;DHT22;8614;48.522;9.206;2022-12-10T10:13:25;2.80;99.90
16995;DHT22;8614;48.522;9.206;2022-12-10T10:15:55;2.90;99.90
16995;DHT22;8614;48.522;9.206;2022-12-10T10:18:29;3.00;99.90
16995;DHT22;8614;48.522;9.206;2022-12-10T10:20:59;3.00;99.90
16995;DHT22;8614;48.522;9.206;2022-12-10T10:23:26;3.10;99.90
16995;DHT22;8614;48.522;9.206;2022-12-10T10:25:53;3.10;99.90
16995;DHT22;8614;48.522;9.206;2022-12-10T10:28:22;3.10;99.90
16995;DHT22;8614;48.522;9.206;2022-12-10T10:30:50;3.10;99.90
16995;DHT22;8614;48.522;9.206;2022-12-10T10:33:19;3.20;99.90
16995;DHT22;8614;48.522;9.206;2022-12-10T10:35:49;3.20;99.90
16995;DHT22;8614;48.522;9.206;2022-12-10T10:38:19;3.20;99.90
16995;DHT22;8614;48.522;9.206;2022-12-10T10:40:50;3.30;99.90
16995;DHT22;8614;48.522;9.206;2022-12-10T10:43:21;3.30;99.90
16995;DHT22;8614;48.522;9.206;2022-12-10T10:45:51;3.40;99.90
16995;DHT22;8614;48.522;9.206;2022-12-10T10:48:21;3.50;99.90
16995;DHT22;8614;48.522;9.206;2022-12-10T10:50:50;3.60;99.90
16995;DHT22;8614;48.522;9.206;2022-12-10T10:53:30;3.60;99.90
16995;DHT22;8614;48.522;9.206;2022-12-10T10:56:06;3.40;99.90
16995;DHT22;8614;48.522;9.206;2022-12-10T10:59:02;3.50;99.90
16995;DHT22;8614;48.522;9.206;2022-12-10T11:01:45;3.50;99.90
16995;DHT22;8614;48.522;9.206;2022-12-10T11:04:15;3.50;99.90
16995;DHT22;8614;48.522;9.206;2022-12-10T11:06:43;3.50;99.90
16995;DHT22;8614;48.522;9.206;2022-12-10T11:09:20;3.40;99.90
16995;DHT22;8614;48.522;9.206;2022-12-10T11:11:50;3.40;99.90
16995;DHT22;8614;48.522;9.206;2022-12-10T11:14:24;3.30;99.90
16995;DHT22;8614;48.522;9.206;2022-12-10T11:17:00;3.30;99.90
16995;DHT22;8614;48.522;9.206;2022-12-10T11:19:29;3.30;99.90
16995;DHT22;8614;48.522;9.206;2022-12-10T11:22:15;3.30;99.90
16995;DHT22;8614;48.522;9.206;2022-12-10T11:24:43;3.30;99.90
16995;DHT22;8614;48.522;9.206;2022-12-10T11:27:14;3.20;99.90
16995;DHT22;8614;48.522;9.206;2022-12-10T11:29:51;3.20;99.90
16995;DHT22;8614;48.522;9.206;2022-12-10T11:32:30;3.20;99.90
16995;DHT22;8614;48.522;9.206;2022-12-10T11:35:11;3.30;99.90
16995;DHT22;8614;48.522;9.206;2022-12-10T11:37:44;3.50;99.90
16995;DHT22;8614;48.522;9.206;2022-12-10T11:40:32;3.50;99.90
16995;DHT22;8614;48.522;9.206;2022-12-10T11:43:08;3.70;99.90
16995;DHT22;8614;48.522;9.206;2022-12-10T11:45:50;3.70;99.90
16995;DHT22;8614;48.522;9.206;2022-12-10T11:48:30;3.70;99.90
16995;DHT22;8614;48.522;9.206;2022-12-10T11:51:04;3.60;99.90
16995;DHT22;8614;48.522;9.206;2022-12-10T11:53:48;3.60;99.90
16995;DHT22;8614;48.522;9.206;2022-12-10T11:56:22;3.60;99.90
16995;DHT22;8614;48.522;9.206;2022-12-10T11:59:01;3.60;99.90
16995;DHT22;8614;48.522;9.206;2022-12-10T12:01:38;3.60;99.90
16995;DHT22;8614;48.522;9.206;2022-12-10T12:04:20;3.60;99.90
16995;DHT22;8614;48.522;9.206;2022-12-10T12:12:53;3.40;99.90
16995;DHT22;8614;48.522;9.206;2022-12-10T12:15:23;3.40;99.90
16995;DHT22;8614;48.522;9.206;2022-12-10T12:17:55;3.30;99.90
16995;DHT22;8614;48.522;9.206;2022-12-10T12:20:25;3.20;99.90
16995;DHT22;8614;48.522;9.206;2022-12-10T12:22:58;3.30;99.90
16995;DHT22;8614;48.522;9.206;2022-12-10T12:25:30;3.40;99.90
16995;DHT22;8614;48.522;9.206;2022-12-10T12:28:04;3.40;99.90
16995;DHT22;8614;48.522;9.206;2022-12-10T12:30:32;3.40;99.90
16995;DHT22;8614;48.522;9.206;2022-12-10T12:33:04;3.50;99.90
16995;DHT22;8614;48.522;9.206;2022-12-10T12:35:38;3.50;99.90
16995;DHT22;8614;48.522;9.206;2022-12-10T12:38:21;3.50;99.90
16995;DHT22;8614;48.522;9.206;2022-12-10T12:40:53;3.60;99.90
16995;DHT22;8614;48.522;9.206;2022-12-10T12:43:27;3.60;99.90
16995;DHT22;8614;48.522;9.206;2022-12-10T12:45:55;3.50;99.90
16995;DHT22;8614;48.522;9.206;2022-12-10T12:48:26;3.50;99.90
16995;DHT22;8614;48.522;9.206;2022-12-10T12:51:00;3.50;99.90
16995;DHT22;8614;48.522;9.206;2022-12-10T12:53:29;3.50;99.90
16995;DHT22;8614;48.522;9.206;2022-12-10T12:56:01;3.50;99.90
16995;DHT22;8614;48.522;9.206;2022-12-10T12:58:37;3.50;99.90
16995;DHT22;8614;48.522;9.206;2022-12-10T13:01:16;3.50;99.90
16995;DHT22;8614;48.522;9.206;2022-12-10T13:03:45;3.40;99.90
16995;DHT22;8614;48.522;9.206;2022-12-10T13:06:18;3.40;99.90
16995;DHT22;8614;48.522;9.206;2022-12-10T13:08:52;3.30;99.90
16995;DHT22;8614;48.522;9.206;2022-12-10T13:11:32;3.30;99.90
16995;DHT22;8614;48.522;9.206;2022-12-10T13:14:28;3.30;99.90
16995;DHT22;8614;48.522;9.206;2022-12-10T13:19:42;3.40;99.90
16995;DHT22;8614;48.522;9.206;2022-12-10T13:22:11;3.30;99.90
16995;DHT22;8614;48.522;9.206;2022-12-10T13:25:12;3.40;99.90
16995;DHT22;8614;48.522;9.206;2022-12-10T13:27:39;3.30;99.90
16995;DHT22;8614;48.522;9.206;2022-12-10T13:30:26;3.30;99.90
16995;DHT22;8614;48.522;9.206;2022-12-10T13:33:03;3.20;99.90
16995;DHT22;8614;48.522;9.206;2022-12-10T13:35:31;3.20;99.90
16995;DHT22;8614;48.522;9.206;2022-12-10T13:38:05;3.10;99.90
16995;DHT22;8614;48.522;9.206;2022-12-10T13:40:57;3.10;99.90
16995;DHT22;8614;48.522;9.206;2022-12-10T13:43:41;3.00;99.90
16995;DHT22;8614;48.522;9.206;2022-12-10T13:46:57;3.00;99.90
16995;DHT22;8614;48.522;9.206;2022-12-10T13:49:25;3.00;99.90
16995;DHT22;8614;48.522;9.206;2022-12-10T13:51:57;3.10;99.90
16995;DHT22;8614;48.522;9.206;2022-12-10T13:54:44;3.20;99.90
16995;DHT22;8614;48.522;9.206;2022-12-10T13:57:36;3.20;99.90
16995;DHT22;8614;48.522;9.206;2022-12-10T14:00:08;3.10;99.90
16995;DHT22;8614;48.522;9.206;2022-12-10T14:08:34;3.00;99.90
16995;DHT22;8614;48.522;9.206;2022-12-10T14:11:05;3.00;99.90
16995;DHT22;8614;48.522;9.206;2022-12-10T14:13:39;3.00;99.90
16995;DHT22;8614;48.522;9.206;2022-12-10T14:16:11;3.00;99.90
16995;DHT22;8614;48.522;9.206;2022-12-10T14:18:42;2.90;99.90
16995;DHT22;8614;48.522;9.206;2022-12-10T14:21:14;2.90;99.90
16995;DHT22;8614;48.522;9.206;2022-12-10T14:23:45;2.90;99.90
16995;DHT22;8614;48.522;9.206;2022-12-10T14:26:14;2.90;99.90
16995;DHT22;8614;48.522;9.206;2022-12-10T14:28:44;2.80;99.90
16995;DHT22;8614;48.522;9.206;2022-12-10T14:31:16;2.80;99.90
16995;DHT22;8614;48.522;9.206;2022-12-10T14:33:45;2.70;99.90
16995;DHT22;8614;48.522;9.206;2022-12-10T14:36:19;2.70;99.90
16995;DHT22;8614;48.522;9.206;2022-12-10T14:38:49;2.70;99.90
16995;DHT22;8614;48.522;9.206;2022-12-10T14:41:19;2.60;99.90
16995;DHT22;8614;48.522;9.206;2022-12-10T14:43:48;2.60;99.90
16995;DHT22;8614;48.522;9.206;2022-12-10T14:46:18;2.60;99.90
16995;DHT22;8614;48.522;9.206;2022-12-10T14:48:49;2.50;99.90
16995;DHT22;8614;48.522;9.206;2022-12-10T14:51:20;2.50;99.90
16995;DHT22;8614;48.522;9.206;2022-12-10T14:53:48;2.50;99.90
16995;DHT22;8614;48.522;9.206;2022-12-10T14:56:22;2.50;99.90
16995;DHT22;8614;48.522;9.206;2022-12-10T14:58:57;2.40;99.90
16995;DHT22;8614;48.522;9.206;2022-12-10T15:01:28;2.40;99.90
16995;DHT22;8614;48.522;9.206;2022-12-10T15:03:58;2.30;99.90
16995;DHT22;8614;48.522;9.206;2022-12-10T15:06:26;2.30;99.90
16995;DHT22;8614;48.522;9.206;2022-12-10T15:08:56;2.30;99.90
16995;DHT22;8614;48.522;9.206;2022-12-10T15:11:25;2.30;99.90
16995;DHT22;8614;48.522;9.206;2022-12-10T15:13:57;2.20;99.90
16995;DHT22;8614;48.522;9.206;2022-12-10T15:16:30;2.20;99.90
16995;DHT22;8614;48.522;9.206;2022-12-10T15:19:13;2.20;99.90
16995;DHT22;8614;48.522;9.206;2022-12-10T15:21:43;2.20;99.90
16995;DHT22;8614;48.522;9.206;2022-12-10T15:24:16;2.10;99.90
16995;DHT22;8614;48.522;9.206;2022-12-10T15:26:45;2.10;99.90
16995;DHT22;8614;48.522;9.206;2022-12-10T15:29:33;2.10;99.90
16995;DHT22;8614;48.522;9.206;2022-12-10T15:32:04;2.10;99.90
16995;DHT22;8614;48.522;9.206;2022-12-10T15:34:38;2.10;99.90
16995;DHT22;8614;48.522;9.206;2022-12-10T15:37:06;2.10;99.90
16995;DHT22;8614;48.522;9.206;2022-12-10T15:39:45;2.10;99.90
16995;DHT22;8614;48.522;9.206;2022-12-10T15:42:29;2.00;99.90
16995;DHT22;8614;48.522;9.206;2022-12-10T15:45:00;2.00;99.90
16995;DHT22;8614;48.522;9.206;2022-12-10T15:47:28;1.90;99.90
16995;DHT22;8614;48.522;9.206;2022-12-10T15:49:56;1.90;99.90
16995;DHT22;8614;48.522;9.206;2022-12-10T15:52:24;1.90;99.90
16995;DHT22;8614;48.522;9.206;2022-12-10T15:54:53;1.90;99.90
16995;DHT22;8614;48.522;9.206;2022-12-10T15:57:22;1.90;99.90
16995;DHT22;8614;48.522;9.206;2022-12-10T15:59:50;1.90;99.90
16995;DHT22;8614;48.522;9.206;2022-12-10T16:02:26;1.90;99.90
16995;DHT22;8614;48.522;9.206;2022-12-10T16:04:54;1.90;99.90
16995;DHT22;8614;48.522;9.206;2022-12-10T16:07:21;1.90;99.90
16995;DHT22;8614;48.522;9.206;2022-12-10T16:09:48;1.90;99.90
16995;DHT22;8614;48.522;9.206;2022-12-10T16:12:16;1.90;99.90
16995;DHT22;8614;48.522;9.206;2022-12-10T16:14:47;1.80;99.90
16995;DHT22;8614;48.522;9.206;2022-12-10T16:17:15;1.80;99.90
16995;DHT22;8614;48.522;9.206;2022-12-10T16:19:43;1.90;99.90
16995;DHT22;8614;48.522;9.206;2022-12-10T16:22:10;1.90;99.90
16995;DHT22;8614;48.522;9.206;2022-12-10T16:24:37;1.90;99.90
16995;DHT22;8614;48.522;9.206;2022-12-10T16:27:08;1.90;99.90
16995;DHT22;8614;48.522;9.206;2022-12-10T16:29:36;1.80;99.90
16995;DHT22;8614;48.522;9.206;2022-12-10T16:32:04;1.80;99.90
16995;DHT22;8614;48.522;9.206;2022-12-10T16:34:31;1.80;99.90
16995;DHT22;8614;48.522;9.206;2022-12-10T16:36:59;1.80;99.90
16995;DHT22;8614;48.522;9.206;2022-12-10T16:39:26;1.70;99.90
16995;DHT22;8614;48.522;9.206;2022-12-10T16:41:54;1.70;99.90
16995;DHT22;8614;48.522;9.206;2022-12-10T16:44:21;1.80;99.90
16995;DHT22;8614;48.522;9.206;2022-12-10T16:46:48;1.80;99.90
16995;DHT22;8614;48.522;9.206;2022-12-10T16:49:15;1.80;99.90
16995;DHT22;8614;48.522;9.206;2022-12-10T16:51:42;1.80;99.90
16995;DHT22;8614;48.522;9.206;2022-12-10T16:54:11;1.80;99.90
16995;DHT22;8614;48.522;9.206;2022-12-10T16:56:39;1.80;99.90
16995;DHT22;8614;48.522;9.206;2022-12-10T16:59:07;1.80;99.90
16995;DHT22;8614;48.522;9.206;2022-12-10T17:01:35;1.70;99.90
16995;DHT22;8614;48.522;9.206;2022-12-10T17:04:02;1.70;99.90
16995;DHT22;8614;48.522;9.206;2022-12-10T17:06:30;1.70;99.90
16995;DHT22;8614;48.522;9.206;2022-12-10T17:08:57;1.70;99.90
16995;DHT22;8614;48.522;9.206;2022-12-10T17:11:27;1.70;99.90
16995;DHT22;8614;48.522;9.206;2022-12-10T17:14:21;1.70;99.90
16995;DHT22;8614;48.522;9.206;2022-12-10T17:16:49;1.70;99.90
16995;DHT22;8614;48.522;9.206;2022-12-10T17:19:16;1.70;99.90
16995;DHT22;8614;48.522;9.206;2022-12-10T17:21:43;1.70;99.90
16995;DHT22;8614;48.522;9.206;2022-12-10T17:24:10;1.70;99.90
16995;DHT22;8614;48.522;9.206;2022-12-10T17:26:40;1.70;99.90
16995;DHT22;8614;48.522;9.206;2022-12-10T17:29:13;1.70;99.90
16995;DHT22;8614;48.522;9.206;2022-12-10T17:31:41;1.70;99.90
16995;DHT22;8614;48.522;9.206;2022-12-10T17:34:10;1.60;99.90
16995;DHT22;8614;48.522;9.206;2022-12-10T17:36:37;1.60;99.90
16995;DHT22;8614;48.522;9.206;2022-12-10T17:39:04;1.60;99.90
16995;DHT22;8614;48.522;9.206;2022-12-10T17:41:31;1.60;99.90
16995;DHT22;8614;48.522;9.206;2022-12-10T17:44:00;1.60;99.90
16995;DHT22;8614;48.522;9.206;2022-12-10T17:46:27;1.60;99.90
16995;DHT22;8614;48.522;9.206;2022-12-10T17:48:54;1.60;99.90
16995;DHT22;8614;48.522;9.206;2022-12-10T17:51:21;1.50;99.90
16995;DHT22;8614;48.522;9.206;2022-12-10T17:53:48;1.50;99.90
16995;DHT22;8614;48.522;9.206;2022-12-10T17:56:16;1.60;99.90
16995;DHT22;8614;48.522;9.206;2022-12-10T17:58:45;1.60;99.90
16995;DHT22;8614;48.522;9.206;2022-12-10T18:01:13;1.60;99.90
16995;DHT22;8614;48.522;9.206;2022-12-10T18:03:41;1.50;99.90
16995;DHT22;8614;48.522;9.206;2022-12-10T18:06:13;1.60;99.90
16995;DHT22;8614;48.522;9.206;2022-12-10T18:08:41;1.60;99.90
16995;DHT22;8614;48.522;9.206;2022-12-10T18:11:09;1.60;99.90
16995;DHT22;8614;48.522;9.206;2022-12-10T18:13:36;1.50;99.90
16995;DHT22;8614;48.522;9.206;2022-12-10T18:16:04;1.50;99.90
16995;DHT22;8614;48.522;9.206;2022-12-10T18:18:36;1.50;99.90
16995;DHT22;8614;48.522;9.206;2022-12-10T18:21:03;1.50;99.90
16995;DHT22;8614;48.522;9.206;2022-12-10T18:23:30;1.40;99.90
16995;DHT22;8614;48.522;9.206;2022-12-10T18:26:01;1.40;99.90
16995;DHT22;8614;48.522;9.206;2022-12-10T18:28:49;1.40;99.90
16995;DHT22;8614;48.522;9.206;2022-12-10T18:31:19;1.40;99.90
16995;DHT22;8614;48.522;9.206;2022-12-10T18:33:50;1.40;99.90
16995;DHT22;8614;48.522;9.206;2022-12-10T18:36:19;1.40;99.90
16995;DHT22;8614;48.522;9.206;2022-12-10T18:38:47;1.40;99.90
16995;DHT22;8614;48.522;9.206;2022-12-10T18:41:15;1.30;99.90
16995;DHT22;8614;48.522;9.206;2022-12-10T18:43:42;1.40;99.90
16995;DHT22;8614;48.522;9.206;2022-12-10T18:46:13;1.40;99.90
16995;DHT22;8614;48.522;9.206;2022-12-10T18:48:40;1.40;99.90
16995;DHT22;8614;48.522;9.206;2022-12-10T18:51:11;1.40;99.90
16995;DHT22;8614;48.522;9.206;2022-12-10T18:53:39;1.40;99.90
16995;DHT22;8614;48.522;9.206;2022-12-10T18:56:06;1.40;99.90
16995;DHT22;8614;48.522;9.206;2022-12-10T18:58:33;1.40;99.90
16995;DHT22;8614;48.522;9.206;2022-12-10T19:01:01;1.40;99.90
16995;DHT22;8614;48.522;9.206;2022-12-10T19:03:27;1.30;99.90
16995;DHT22;8614;48.522;9.206;2022-12-10T19:05:55;1.30;99.90
16995;DHT22;8614;48.522;9.206;2022-12-10T19:08:23;1.30;99.90
16995;DHT22;8614;48.522;9.206;2022-12-10T19:10:50;1.20;99.90
16995;DHT22;8614;48.522;9.206;2022-12-10T19:13:17;1.30;99.90
16995;DHT22;8614;48.522;9.206;2022-12-10T19:15:45;1.30;99.90
16995;DHT22;8614;48.522;9.206;2022-12-10T19:18:14;1.30;99.90
16995;DHT22;8614;48.522;9.206;2022-12-10T19:20:41;1.30;99.90
16995;DHT22;8614;48.522;9.206;2022-12-10T19:23:08;1.30;99.90
16995;DHT22;8614;48.522;9.206;2022-12-10T19:25:36;1.20;99.90
16995;DHT22;8614;48.522;9.206;2022-12-10T19:28:04;1.20;99.90
16995;DHT22;8614;48.522;9.206;2022-12-10T19:30:31;1.20;99.90
16995;DHT22;8614;48.522;9.206;2022-12-10T19:32:57;1.20;99.90
16995;DHT22;8614;48.522;9.206;2022-12-10T19:35:25;1.30;99.90
16995;DHT22;8614;48.522;9.206;2022-12-10T19:37:52;1.20;99.90